createdAt,value
2023-02-23T00:00:45.718Z,11.05
2023-02-23T00:03:31.724Z,10.30
2023-02-23T00:06:18.853Z,10.85
2023-02-23T00:09:24.444Z,10.00
2023-02-23T00:12:10.615Z,9.68
2023-02-23T00:14:56.405Z,9.27
2023-02-23T00:17:42.366Z,9.45
2023-02-23T00:20:28.219Z,9.68
2023-02-23T00:23:15.161Z,9.35
2023-02-23T00:26:05.213Z,10.20
2023-02-23T00:28:53.685Z,9.32
2023-02-23T00:31:40.808Z,9.00
2023-02-23T00:34:26.611Z,9.13
2023-02-23T00:37:12.566Z,9.50
2023-02-23T00:39:58.445Z,9.43
2023-02-23T00:42:47.911Z,10.45
2023-02-23T00:45:34.039Z,9.57
2023-02-23T00:48:19.822Z,9.93
2023-02-23T00:51:06.000Z,9.20
2023-02-23T00:53:55.160Z,9.43
2023-02-23T00:56:41.803Z,9.02
2023-02-23T00:59:29.679Z,8.27
2023-02-23T01:02:16.024Z,9.00
2023-02-23T01:05:02.163Z,9.23
2023-02-23T01:07:49.152Z,9.85
2023-02-23T01:10:42.921Z,9.85
2023-02-23T01:13:30.754Z,9.38
2023-02-23T01:16:18.318Z,9.57
2023-02-23T01:19:05.666Z,10.27
2023-02-23T01:21:51.896Z,9.40
2023-02-23T01:24:38.775Z,9.40
2023-02-23T01:27:25.869Z,8.65
2023-02-23T01:30:14.929Z,8.80
2023-02-23T01:33:02.964Z,8.85
2023-02-23T01:36:00.143Z,8.75
2023-02-23T01:38:45.773Z,8.63
2023-02-23T01:41:33.185Z,8.30
2023-02-23T01:44:19.082Z,8.02
2023-02-23T01:47:05.039Z,8.55
2023-02-23T01:49:51.083Z,9.55
2023-02-23T01:52:37.727Z,9.02
2023-02-23T01:55:24.705Z,9.15
2023-02-23T01:58:15.597Z,8.57
2023-02-23T02:01:02.998Z,8.18
2023-02-23T02:03:53.941Z,8.48
2023-02-23T02:06:40.226Z,8.23
2023-02-23T02:09:28.552Z,8.65
2023-02-23T02:12:15.073Z,9.35
2023-02-23T02:15:05.038Z,8.57
2023-02-23T02:17:59.101Z,8.55
2023-02-23T02:20:58.621Z,8.30
2023-02-23T02:24:15.298Z,8.73
2023-02-23T02:27:21.517Z,8.35
2023-02-23T02:30:43.691Z,8.05
2023-02-23T02:33:34.637Z,7.38
2023-02-23T02:36:44.694Z,8.40
2023-02-23T02:39:54.112Z,8.73
2023-02-23T02:42:51.315Z,8.00
2023-02-23T02:45:50.362Z,7.78
2023-02-23T02:48:50.406Z,8.40
2023-02-23T02:51:45.191Z,8.15
2023-02-23T02:55:00.593Z,8.18
2023-02-23T02:57:47.107Z,8.90
2023-02-23T03:01:00.821Z,8.45
2023-02-23T03:04:05.995Z,9.05
2023-02-23T03:07:24.987Z,8.13
2023-02-23T03:10:52.630Z,8.27
2023-02-23T03:14:25.868Z,8.40
2023-02-23T03:17:50.748Z,8.57
2023-02-23T03:21:24.060Z,8.70
2023-02-23T03:24:38.996Z,8.50
2023-02-23T03:28:08.396Z,8.25
2023-02-23T03:31:35.349Z,8.05
2023-02-23T03:34:47.788Z,8.02
2023-02-23T03:38:07.049Z,8.02
2023-02-23T03:41:13.076Z,8.55
2023-02-23T03:44:22.874Z,8.45
2023-02-23T03:47:29.574Z,7.95
2023-02-23T03:50:45.967Z,8.45
2023-02-23T03:54:40.221Z,8.13
2023-02-23T03:57:46.901Z,8.65
2023-02-23T04:00:54.887Z,8.93
2023-02-23T04:04:01.140Z,9.15
2023-02-23T04:07:06.170Z,8.30
2023-02-23T04:10:10.765Z,8.60
2023-02-23T04:13:17.425Z,8.43
2023-02-23T04:16:06.009Z,8.57
2023-02-23T04:18:51.861Z,7.97
2023-02-23T04:21:38.158Z,8.20
2023-02-23T04:24:23.855Z,8.10
2023-02-23T04:27:09.718Z,8.20
2023-02-23T04:29:55.537Z,8.55
2023-02-23T04:32:41.322Z,7.03
2023-02-23T04:35:29.952Z,8.43
2023-02-23T04:38:16.168Z,8.02
2023-02-23T04:41:02.112Z,8.57
2023-02-23T04:43:48.006Z,8.65
2023-02-23T04:46:33.744Z,8.32
2023-02-23T04:49:19.571Z,8.73
2023-02-23T04:52:05.707Z,8.73
2023-02-23T04:54:51.735Z,9.10
2023-02-23T04:57:37.669Z,9.07
2023-02-23T05:00:23.732Z,8.63
2023-02-23T05:03:10.837Z,8.40
2023-02-23T05:05:56.919Z,8.15
2023-02-23T05:08:43.080Z,8.43
2023-02-23T05:11:29.988Z,8.90
2023-02-23T05:14:15.992Z,9.35
2023-02-23T05:17:02.957Z,8.75
2023-02-23T05:19:48.922Z,9.48
2023-02-23T05:22:34.858Z,8.90
2023-02-23T05:25:20.807Z,8.75
2023-02-23T05:28:06.682Z,8.90
2023-02-23T05:30:52.699Z,9.55
2023-02-23T05:33:45.857Z,9.50
2023-02-23T05:36:31.856Z,10.07
2023-02-23T05:39:17.604Z,9.73
2023-02-23T05:42:03.640Z,10.05
2023-02-23T05:44:49.358Z,9.25
2023-02-23T05:47:38.836Z,9.00
2023-02-23T05:50:25.985Z,9.27
2023-02-23T05:53:11.954Z,9.60
2023-02-23T05:55:58.157Z,9.35
2023-02-23T05:58:44.572Z,10.48
2023-02-23T06:01:31.012Z,9.68
2023-02-23T06:04:17.456Z,10.38
2023-02-23T06:07:03.921Z,9.70
2023-02-23T06:09:50.735Z,9.80
2023-02-23T06:12:36.603Z,9.60
2023-02-23T06:15:22.576Z,9.88
2023-02-23T06:18:09.151Z,9.93
2023-02-23T06:20:55.650Z,9.85
2023-02-23T06:23:41.803Z,10.07
2023-02-23T06:26:27.785Z,10.65
2023-02-23T06:29:14.754Z,10.43
2023-02-23T06:32:01.077Z,11.23
2023-02-23T06:34:47.378Z,11.88
2023-02-23T06:37:34.277Z,11.68
2023-02-23T06:40:20.976Z,11.82
2023-02-23T06:43:06.782Z,11.30
2023-02-23T06:45:52.657Z,11.88
2023-02-23T06:48:38.482Z,12.60
2023-02-23T06:51:24.464Z,13.07
2023-02-23T06:54:10.381Z,12.95
2023-02-23T06:56:56.775Z,13.45
2023-02-23T06:59:42.782Z,12.90
2023-02-23T07:02:28.587Z,13.65
2023-02-23T07:05:14.570Z,13.50
2023-02-23T07:08:00.503Z,12.90
2023-02-23T07:10:46.645Z,16.05
2023-02-23T07:13:32.867Z,14.35
2023-02-23T07:16:18.734Z,16.83
2023-02-23T07:19:04.776Z,19.25
2023-02-23T07:21:50.903Z,20.75
2023-02-23T07:24:36.663Z,20.17
2023-02-23T07:27:23.040Z,17.35
2023-02-23T07:30:09.875Z,18.95
2023-02-23T07:32:55.771Z,17.42
2023-02-23T07:35:43.132Z,16.67
2023-02-23T07:38:29.160Z,17.48
2023-02-23T07:41:15.115Z,16.88
2023-02-23T07:44:01.080Z,19.58
2023-02-23T07:46:46.969Z,20.55
2023-02-23T07:49:33.171Z,22.20
2023-02-23T07:52:19.265Z,20.67
2023-02-23T07:55:05.871Z,21.73
2023-02-23T07:57:51.899Z,20.70
2023-02-23T08:00:40.094Z,23.50
2023-02-23T08:03:26.486Z,22.75
2023-02-23T08:06:12.514Z,21.88
2023-02-23T08:09:01.974Z,24.65
2023-02-23T08:11:47.882Z,30.75
2023-02-23T08:14:33.716Z,31.67
2023-02-23T08:17:19.912Z,26.27
2023-02-23T08:20:07.096Z,29.35
2023-02-23T08:22:57.149Z,37.17
2023-02-23T08:25:42.824Z,25.88
2023-02-23T08:28:29.226Z,23.10
2023-02-23T08:31:16.422Z,23.42
2023-02-23T08:34:02.770Z,24.33
2023-02-23T08:36:49.521Z,24.45
2023-02-23T08:39:35.360Z,23.73
2023-02-23T08:42:21.513Z,22.13
2023-02-23T08:45:08.712Z,24.65
2023-02-23T08:47:55.804Z,23.20
2023-02-23T08:50:41.697Z,26.75
2023-02-23T08:53:29.781Z,31.58
2023-02-23T08:56:15.661Z,36.80
2023-02-23T08:59:01.614Z,36.83
2023-02-23T09:01:47.555Z,36.05
2023-02-23T09:04:35.232Z,35.72
2023-02-23T09:07:23.248Z,41.88
2023-02-23T09:10:11.119Z,45.60
2023-02-23T09:12:56.827Z,43.90
2023-02-23T09:15:43.616Z,36.05
2023-02-23T09:18:30.753Z,37.53
2023-02-23T09:21:21.103Z,34.03
2023-02-23T09:24:07.400Z,31.30
2023-02-23T09:26:53.826Z,25.45
2023-02-23T09:29:43.910Z,24.58
2023-02-23T09:32:30.184Z,20.17
2023-02-23T09:35:17.989Z,18.13
2023-02-23T09:38:05.707Z,18.00
2023-02-23T09:40:55.412Z,16.02
2023-02-23T09:43:45.346Z,15.75
2023-02-23T10:21:21.111Z,13.88
2023-02-23T10:24:30.284Z,17.13
2023-02-23T10:27:18.887Z,18.02
2023-02-23T10:30:14.800Z,15.38
2023-02-23T10:33:03.561Z,16.90
2023-02-23T10:35:54.024Z,18.23
2023-02-23T10:38:46.987Z,18.42
2023-02-23T10:41:34.547Z,19.00
2023-02-23T10:44:24.356Z,18.10
2023-02-23T10:47:31.556Z,17.08
2023-02-23T10:50:18.156Z,16.58
2023-02-23T10:53:17.539Z,13.93
2023-02-23T10:56:13.905Z,14.80
2023-02-23T10:59:00.242Z,15.82
2023-02-23T11:02:01.007Z,14.63
2023-02-23T11:04:53.956Z,14.85
2023-02-23T11:07:40.214Z,13.43
2023-02-23T11:10:28.155Z,12.65
2023-02-23T11:13:26.434Z,14.68
2023-02-23T11:16:17.731Z,15.38
2023-02-23T11:19:05.418Z,13.55
2023-02-23T11:21:52.599Z,13.88
2023-02-23T11:24:41.280Z,12.02
2023-02-23T11:27:27.773Z,14.77
2023-02-23T11:30:14.006Z,12.57
2023-02-23T11:33:10.692Z,13.75
2023-02-23T11:36:01.196Z,14.75
2023-02-23T11:38:47.920Z,15.30
2023-02-23T11:41:37.181Z,13.85
2023-02-23T11:44:23.930Z,12.30
2023-02-23T11:47:27.933Z,14.13
2023-02-23T11:50:39.914Z,14.13
2023-02-23T11:53:32.781Z,14.87
2023-02-23T11:56:24.009Z,12.93
2023-02-23T11:59:18.383Z,13.30
2023-02-23T12:02:15.791Z,13.95
2023-02-23T12:05:17.158Z,14.13
2023-02-23T12:08:27.673Z,15.82
2023-02-23T12:11:20.692Z,13.43
2023-02-23T12:14:26.576Z,11.77
2023-02-23T12:17:25.847Z,11.35
2023-02-23T12:20:16.390Z,10.70
2023-02-23T12:23:13.944Z,12.95
2023-02-23T12:26:13.913Z,12.05
2023-02-23T12:29:04.719Z,12.85
2023-02-23T12:32:05.787Z,12.35
2023-02-23T12:34:59.361Z,12.15
2023-02-23T12:37:50.247Z,10.27
2023-02-23T12:40:38.619Z,10.75
2023-02-23T12:43:36.333Z,12.43
2023-02-23T12:46:25.699Z,11.65
2023-02-23T12:49:19.630Z,10.63
2023-02-23T12:52:17.546Z,11.20
2023-02-23T12:55:04.168Z,10.88
2023-02-23T12:58:06.919Z,13.75
2023-02-23T13:01:04.475Z,11.57
2023-02-23T13:04:02.797Z,11.27
2023-02-23T13:07:00.651Z,12.45
2023-02-23T13:10:24.223Z,13.77
2023-02-23T13:16:17.603Z,13.63
2023-02-23T13:19:09.338Z,14.68
2023-02-23T13:22:06.828Z,11.38
2023-02-23T13:24:54.456Z,14.23
2023-02-23T13:27:47.008Z,9.55
2023-02-23T13:30:33.656Z,11.32
2023-02-23T13:33:43.322Z,11.52
2023-02-23T13:36:32.499Z,10.85
2023-02-23T13:40:12.820Z,12.93
2023-02-23T13:43:38.216Z,15.57
2023-02-23T13:46:46.064Z,14.80
2023-02-23T13:49:39.005Z,14.73
2023-02-23T13:52:45.272Z,13.13
2023-02-23T13:55:48.204Z,12.32
2023-02-23T13:58:35.816Z,23.38
2023-02-23T14:01:23.616Z,14.45
2023-02-23T14:04:15.771Z,14.00
2023-02-23T14:07:16.710Z,15.00
2023-02-23T14:10:30.135Z,12.48
2023-02-23T14:13:16.550Z,11.23
2023-02-23T14:16:20.158Z,13.68
2023-02-23T14:19:34.537Z,13.13
2023-02-23T14:22:22.185Z,11.90
2023-02-23T14:25:33.155Z,10.77
2023-02-23T14:28:27.717Z,9.27
2023-02-23T14:31:14.155Z,11.45
2023-02-23T14:34:02.038Z,11.82
2023-02-23T14:36:49.983Z,13.40
2023-02-23T14:39:36.379Z,11.65
2023-02-23T14:42:27.864Z,13.35
2023-02-23T14:45:20.942Z,12.45
2023-02-23T14:48:13.675Z,10.98
2023-02-23T14:51:17.242Z,14.02
2023-02-23T14:54:11.581Z,15.68
2023-02-23T14:57:00.167Z,10.68
2023-02-23T14:59:56.632Z,10.73
2023-02-23T15:03:00.652Z,11.30
2023-02-23T15:05:57.869Z,13.80
2023-02-23T15:08:46.525Z,13.73
2023-02-23T15:11:32.915Z,13.60
2023-02-23T15:14:27.504Z,15.88
2023-02-23T15:17:17.685Z,14.25
2023-02-23T15:20:15.980Z,14.68
2023-02-23T15:23:05.214Z,13.50
2023-02-23T15:25:52.864Z,13.85
2023-02-23T15:28:40.320Z,15.05
2023-02-23T15:31:30.828Z,18.13
2023-02-23T15:34:21.494Z,18.55
2023-02-23T15:37:23.772Z,20.23
2023-02-23T15:40:17.791Z,18.27
2023-02-23T15:43:03.924Z,16.98
2023-02-23T15:45:52.406Z,15.68
2023-02-23T15:48:46.680Z,19.42
2023-02-23T15:51:32.608Z,18.10
2023-02-23T15:54:20.510Z,16.98
2023-02-23T15:57:08.429Z,16.20
2023-02-23T15:59:58.087Z,19.38
2023-02-23T16:02:45.035Z,21.40
2023-02-23T16:05:46.586Z,23.50
2023-02-23T16:08:34.324Z,25.37
2023-02-23T16:11:22.278Z,26.55
2023-02-23T16:14:15.532Z,30.90
2023-02-23T16:17:10.841Z,34.10
2023-02-23T16:20:18.992Z,30.08
2023-02-23T16:23:06.060Z,27.77
2023-02-23T16:25:55.237Z,30.20
2023-02-23T16:28:43.720Z,31.15
2023-02-23T16:31:49.973Z,29.30
2023-02-23T16:34:48.991Z,28.25
2023-02-23T16:37:50.035Z,24.48
2023-02-23T16:40:35.807Z,26.25
2023-02-23T16:43:21.787Z,26.42
2023-02-23T16:46:08.383Z,26.27
2023-02-23T16:48:54.452Z,28.42
2023-02-23T16:51:40.655Z,27.85
2023-02-23T16:54:27.083Z,29.05
2023-02-23T16:57:24.969Z,32.28
2023-02-23T17:00:14.866Z,33.22
2023-02-23T17:03:01.468Z,37.08
2023-02-23T17:05:48.098Z,35.72
2023-02-23T17:08:35.724Z,33.45
2023-02-23T17:11:23.014Z,33.33
2023-02-23T17:14:11.269Z,31.48
2023-02-23T17:16:57.454Z,40.63
2023-02-23T17:19:45.546Z,37.30
2023-02-23T17:22:33.450Z,35.15
2023-02-23T17:25:19.736Z,37.10
2023-02-23T17:28:05.846Z,34.85
2023-02-23T17:30:51.995Z,35.40
2023-02-23T17:33:39.083Z,36.38
2023-02-23T17:36:27.594Z,33.70
2023-02-23T17:39:16.830Z,33.70
2023-02-23T17:42:02.740Z,32.75
2023-02-23T17:44:48.675Z,33.13
2023-02-23T17:47:36.051Z,27.50
2023-02-23T17:50:22.265Z,24.23
2023-02-23T17:53:08.103Z,15.70
2023-02-23T17:55:57.974Z,14.63
2023-02-23T17:58:45.737Z,13.45
2023-02-23T18:01:31.612Z,14.07
2023-02-23T18:04:17.552Z,13.10
2023-02-23T18:07:03.610Z,12.77
2023-02-23T18:09:50.150Z,10.35
2023-02-23T18:12:36.504Z,9.95
2023-02-23T18:15:22.220Z,12.07
2023-02-23T18:18:08.189Z,11.73
2023-02-23T18:20:56.389Z,29.58
2023-02-23T18:23:42.818Z,30.17
2023-02-23T18:26:28.996Z,37.70
2023-02-23T18:29:15.103Z,52.20
2023-02-23T18:32:03.024Z,48.72
2023-02-23T18:34:49.467Z,45.97
2023-02-23T18:37:35.792Z,42.22
2023-02-23T18:40:23.894Z,41.33
2023-02-23T18:43:11.160Z,40.67
2023-02-23T18:45:57.747Z,39.88
2023-02-23T18:48:44.486Z,40.88
2023-02-23T18:51:30.194Z,37.85
2023-02-23T18:54:19.071Z,38.58
2023-02-23T18:57:06.225Z,36.33
2023-02-23T18:59:52.673Z,35.05
2023-02-23T19:02:38.517Z,36.08
2023-02-23T19:05:24.861Z,31.77
2023-02-23T19:08:13.564Z,32.00
2023-02-23T19:10:59.902Z,34.45
2023-02-23T19:13:46.141Z,32.67
2023-02-23T19:16:33.001Z,46.95
2023-02-23T19:19:18.781Z,57.75
2023-02-23T19:22:04.674Z,63.75
2023-02-23T19:24:50.725Z,63.67
2023-02-23T19:27:36.735Z,73.65
2023-02-23T19:30:22.646Z,70.47
2023-02-23T19:33:08.954Z,66.15
2023-02-23T19:35:54.829Z,63.40
2023-02-23T19:38:42.545Z,64.95
2023-02-23T19:41:28.592Z,49.85
2023-02-23T19:44:14.668Z,46.90
2023-02-23T19:47:00.741Z,46.95
2023-02-23T19:49:46.633Z,55.95
2023-02-23T19:52:32.418Z,52.40
2023-02-23T19:55:20.335Z,58.03
2023-02-23T19:58:06.454Z,52.35
2023-02-23T20:00:53.255Z,52.88
2023-02-23T20:03:46.273Z,46.80
2023-02-23T20:06:36.274Z,43.50
2023-02-23T20:09:22.456Z,39.13
2023-02-23T20:12:09.218Z,40.58
2023-02-23T20:14:55.558Z,41.17
2023-02-23T20:17:41.683Z,42.20
2023-02-23T20:20:29.365Z,45.88
2023-02-23T20:23:15.697Z,49.28
2023-02-23T20:26:10.936Z,52.28
2023-02-23T20:28:57.904Z,53.72
2023-02-23T20:31:52.231Z,60.88
2023-02-23T20:34:39.425Z,62.05
2023-02-23T20:37:25.780Z,59.55
2023-02-23T20:40:18.838Z,48.42
2023-02-23T20:43:05.481Z,43.13
2023-02-23T20:45:51.588Z,44.35
2023-02-23T20:48:37.795Z,41.20
2023-02-23T20:51:23.824Z,43.58
2023-02-23T20:54:11.227Z,45.13
2023-02-23T20:57:07.490Z,44.72
2023-02-23T20:59:53.302Z,45.33
2023-02-23T21:02:40.993Z,40.80
2023-02-23T21:05:29.232Z,39.30
2023-02-23T21:08:15.647Z,34.85
2023-02-23T21:11:05.148Z,34.67
2023-02-23T21:13:52.130Z,33.40
2023-02-23T21:16:41.756Z,34.20
2023-02-23T21:19:27.820Z,38.03
2023-02-23T21:22:16.454Z,40.40
2023-02-23T21:25:02.428Z,53.10
2023-02-23T21:27:49.742Z,46.83
2023-02-23T21:30:35.971Z,50.13
2023-02-23T21:33:22.059Z,50.08
2023-02-23T21:36:18.497Z,55.80
2023-02-23T21:39:10.544Z,58.03
2023-02-23T21:41:58.542Z,53.33
2023-02-23T21:44:45.810Z,51.63
2023-02-23T21:47:40.724Z,39.42
2023-02-23T21:50:26.839Z,34.47
2023-02-23T21:53:13.256Z,31.92
2023-02-23T21:55:59.650Z,31.30
2023-02-23T21:58:50.757Z,33.80
2023-02-23T22:01:38.975Z,32.25
2023-02-23T22:04:24.858Z,31.90
2023-02-23T22:07:10.655Z,33.22
2023-02-23T22:09:56.523Z,35.13
2023-02-23T22:12:42.391Z,39.63
2023-02-23T22:15:28.340Z,41.10
2023-02-23T22:18:14.368Z,43.33
2023-02-23T22:21:01.680Z,40.65
2023-02-23T22:23:48.022Z,39.92
2023-02-23T22:26:36.096Z,39.97
2023-02-23T22:29:23.698Z,38.25
2023-02-23T22:32:10.570Z,30.50
2023-02-23T22:34:56.877Z,26.85
2023-02-23T22:37:42.692Z,25.65
2023-02-23T22:40:28.847Z,25.52
2023-02-23T22:43:16.282Z,26.00
2023-02-23T22:46:02.397Z,26.17
2023-02-23T22:48:48.716Z,27.85
2023-02-23T22:51:34.847Z,29.35
2023-02-23T22:54:24.024Z,32.38
2023-02-23T22:57:10.125Z,32.05
2023-02-23T23:00:00.105Z,31.20
2023-02-23T23:02:46.111Z,32.33
2023-02-23T23:05:32.861Z,31.33
2023-02-23T23:08:18.815Z,35.42
2023-02-23T23:11:09.981Z,34.65
2023-02-23T23:14:02.152Z,32.08
2023-02-23T23:16:49.492Z,37.13
2023-02-23T23:19:39.140Z,44.13
2023-02-23T23:22:25.382Z,39.40
2023-02-23T23:25:14.887Z,34.38
2023-02-23T23:28:00.680Z,30.42
2023-02-23T23:30:47.355Z,30.73
2023-02-23T23:33:34.577Z,29.00
2023-02-23T23:36:23.683Z,27.85
2023-02-23T23:39:12.092Z,29.52
2023-02-23T23:41:58.050Z,29.30
2023-02-23T23:44:45.276Z,28.83
2023-02-23T23:47:31.093Z,28.58
2023-02-23T23:50:17.503Z,30.83
2023-02-23T23:53:04.592Z,31.08
2023-02-23T23:55:50.468Z,28.98
2023-02-23T23:58:37.303Z,29.30
